SBGW

Details ICAO SBGW
Name GUARATINGUETA
Region Brazil
Timezone America/Sao_Paulo (UTC-2.0)
Plans Departing 1
Arriving 3
Stats Elevation 1,761 ft / 537 m (AMSL)
Location -22.791608° -45.204779°
Runways 1
Magnetic Variation 22.046° W
Sunrise 2017-12-12 08:10:45 UTC / 2017-12-12 06:10:45 Local
Sunset 2017-12-12 21:41:20 UTC / 2017-12-12 19:41:20 Local
Advertisement - Login to hide

Runways

ID Width Length Bearing (true) Bearing (mag) Surface Threshold Offset Overrun Length
02 98 ft / 30 m 5,111 ft / 1,558 m 359.00° 21.05° Asphalt 0 ft / 0 m 0 ft / 0 m
20 98 ft / 30 m 5,111 ft / 1,558 m 179.00° 201.05° Asphalt 0 ft / 0 m 0 ft / 0 m

Map

Weather


0- 5 10 15 20 25 30 35+ Temperature / ° C

Clouds and Precipitation
Forecast for 2017-12-12 18:00 UTC. Updated an hour ago

Ground ~20,000 ft ~40,000 ft Winds

METAR

SBGW 121500Z VRB03KT 8000 BKN025 OVC040 25/16 Q1018

TAF

TAF SBGW 120730Z 1212/1224 16005KT 4000 BR BKN010 TX27/1217Z TN21/1224Z BECMG 1213/1215 10005KT 7000 NSW BKN025 BECMG 1221/1223 07005KT SCT023 RMK PGZ

Frequencies

Tower 125.90 MHz GUARA TWR
Approach 122.80 MHz GUARA APP
Tower 122.80 MHz GUARA TWR
Warning: Do not use this data for real-world aviation or navigation. No guarantee of current accuracy is given.